createdAt,value
2023-01-22T00:02:26.923Z,0.56
2023-01-22T00:07:31.830Z,0.58
2023-01-22T00:12:35.941Z,0.63
2023-01-22T00:17:37.838Z,0.60
2023-01-22T00:22:47.436Z,0.55
2023-01-22T00:27:51.444Z,0.55
2023-01-22T00:32:53.150Z,0.51
2023-01-22T00:37:54.832Z,0.43
2023-01-22T00:42:56.495Z,0.38
2023-01-22T00:48:08.566Z,0.40
2023-01-22T00:53:11.030Z,0.41
2023-01-22T00:58:12.661Z,0.41
2023-01-22T01:03:27.394Z,0.39
2023-01-22T01:08:32.231Z,0.41
2023-01-22T01:13:43.595Z,0.40
2023-01-22T01:18:48.502Z,0.38
2023-01-22T01:23:50.351Z,0.39
2023-01-22T01:28:52.611Z,0.36
2023-01-22T01:33:54.338Z,0.27
2023-01-22T01:39:01.021Z,0.20
2023-01-22T01:44:11.358Z,0.14
2023-01-22T01:49:22.650Z,0.08
2023-01-22T01:54:27.761Z,0.15
2023-01-22T01:59:33.477Z,0.19
2023-01-22T02:04:35.226Z,0.23
2023-01-22T02:09:37.958Z,0.25
2023-01-22T02:14:44.029Z,0.25
2023-01-22T02:19:46.065Z,0.23
2023-01-22T02:24:53.941Z,0.23
2023-01-22T02:29:59.263Z,0.24
2023-01-22T02:35:00.957Z,0.25
2023-01-22T02:40:08.858Z,0.23
2023-01-22T02:45:11.324Z,0.23
2023-01-22T02:50:13.441Z,0.24
2023-01-22T02:55:19.809Z,0.24
2023-01-22T03:00:24.129Z,0.24
2023-01-22T03:05:27.974Z,0.24
2023-01-22T03:10:32.095Z,0.24
2023-01-22T03:15:57.289Z,0.22
2023-01-22T03:21:20.192Z,0.19
2023-01-22T03:26:28.928Z,0.20
2023-01-22T03:31:30.797Z,0.19
2023-01-22T03:36:35.135Z,0.17
2023-01-22T03:41:40.294Z,0.15
2023-01-22T03:46:42.731Z,0.16
2023-01-22T03:51:45.168Z,0.15
2023-01-22T03:56:47.251Z,0.15
2023-01-22T04:01:56.672Z,0.15
2023-01-22T04:06:59.281Z,0.16
2023-01-22T04:12:12.673Z,0.16
2023-01-22T04:17:15.528Z,0.16
2023-01-22T04:22:37.867Z,0.17
2023-01-22T04:27:43.462Z,0.19
2023-01-22T04:32:45.472Z,0.22
2023-01-22T04:38:17.363Z,0.22
2023-01-22T04:43:21.305Z,0.21
2023-01-22T04:48:25.389Z,0.21
2023-01-22T04:53:29.449Z,0.22
2023-01-22T04:58:33.565Z,0.19
2023-01-22T05:03:37.955Z,0.20
2023-01-22T05:08:44.503Z,0.19
2023-01-22T05:13:52.658Z,0.18
2023-01-22T05:18:55.152Z,0.15
2023-01-22T05:24:03.600Z,0.09
2023-01-22T05:29:08.685Z,0.06
2023-01-22T05:34:40.964Z,0.03
2023-01-22T05:39:45.907Z,0.04
2023-01-22T05:44:52.999Z,0.03
2023-01-22T05:50:01.338Z,0.01
2023-01-22T05:55:03.792Z,0.00
2023-01-22T06:00:12.846Z,0.01
2023-01-22T06:05:28.280Z,-0.02
2023-01-22T06:10:38.868Z,-0.04
2023-01-22T06:15:43.322Z,-0.04
2023-01-22T06:21:08.290Z,-0.05
2023-01-22T06:26:10.285Z,-0.08
2023-01-22T06:31:16.741Z,-0.10
2023-01-22T06:36:23.640Z,-0.10
2023-01-22T06:41:27.591Z,-0.11
2023-01-22T06:46:34.448Z,-0.09
2023-01-22T06:51:42.781Z,-0.10
2023-01-22T06:56:47.361Z,-0.12
2023-01-22T07:01:49.729Z,-0.13
2023-01-22T07:06:54.104Z,-0.15
2023-01-22T07:11:57.422Z,-0.18
2023-01-22T07:17:01.359Z,-0.22
2023-01-22T07:22:03.696Z,-0.28
2023-01-22T07:27:07.647Z,-0.30
2023-01-22T07:32:11.567Z,-0.25
2023-01-22T07:37:16.157Z,-0.21
2023-01-22T07:42:19.895Z,-0.21
2023-01-22T07:47:26.346Z,-0.08
2023-01-22T07:52:28.203Z,-0.01
2023-01-22T07:57:32.181Z,0.00
2023-01-22T08:02:34.432Z,0.09
2023-01-22T08:07:37.164Z,0.13
2023-01-22T08:12:41.388Z,0.14
2023-01-22T08:17:43.208Z,0.14
2023-01-22T08:22:50.531Z,0.17
2023-01-22T08:27:52.474Z,0.21
2023-01-22T08:32:55.272Z,0.27
2023-01-22T08:38:05.354Z,0.38
2023-01-22T08:43:14.035Z,0.34
2023-01-22T08:48:18.608Z,0.38
2023-01-22T08:53:25.143Z,0.44
2023-01-22T08:58:32.117Z,0.53
2023-01-22T09:03:33.901Z,0.60
2023-01-22T09:08:35.740Z,0.67
2023-01-22T09:13:37.891Z,0.72
2023-01-22T09:18:42.094Z,0.80
2023-01-22T09:23:45.942Z,0.89
2023-01-22T09:28:50.535Z,0.98
2023-01-22T09:33:57.063Z,1.06
2023-01-22T09:39:01.179Z,1.14
2023-01-22T09:44:05.708Z,1.21
2023-01-22T09:49:20.096Z,1.28
2023-01-22T09:54:22.557Z,1.40
2023-01-22T09:59:27.652Z,1.56
2023-01-22T10:04:45.199Z,1.68
2023-01-22T10:09:53.707Z,1.68
2023-01-22T10:14:58.297Z,1.81
2023-01-22T10:20:06.967Z,1.83
2023-01-22T10:25:16.265Z,1.94
2023-01-22T10:30:23.318Z,1.97
2023-01-22T10:35:25.764Z,1.89
2023-01-22T10:40:41.662Z,1.93
2023-01-22T10:45:56.222Z,1.85
2023-01-22T10:51:19.882Z,1.88
2023-01-22T10:56:35.982Z,1.87
2023-01-22T11:01:43.072Z,1.95
2023-01-22T11:06:53.607Z,2.15
2023-01-22T11:12:26.990Z,2.20
2023-01-22T11:17:41.758Z,2.30
2023-01-22T11:22:54.794Z,2.41
2023-01-22T11:28:18.135Z,2.50
2023-01-22T11:33:26.872Z,2.44
2023-01-22T11:38:38.544Z,2.39
2023-01-22T11:43:55.661Z,2.33
2023-01-22T11:49:06.948Z,2.37
2023-01-22T11:54:48.384Z,2.24
2023-01-22T12:00:26.393Z,2.28
2023-01-22T12:06:19.565Z,2.21
2023-01-22T12:11:24.123Z,2.24
2023-01-22T12:16:46.943Z,2.27
2023-01-22T12:21:54.633Z,2.24
2023-01-22T12:27:19.851Z,2.34
2023-01-22T12:32:23.031Z,2.31
2023-01-22T12:37:30.624Z,2.33
2023-01-22T12:43:01.947Z,2.35
2023-01-22T12:48:07.115Z,2.25
2023-01-22T12:53:39.208Z,2.22
2023-01-22T12:58:42.762Z,2.25
2023-01-22T13:03:47.711Z,2.24
2023-01-22T13:08:49.513Z,2.26
2023-01-22T13:14:18.963Z,2.24
2023-01-22T13:19:27.851Z,2.25
2023-01-22T13:24:30.707Z,2.25
2023-01-22T13:29:39.300Z,2.26
2023-01-22T13:34:43.463Z,2.32
2023-01-22T13:39:45.294Z,2.28
2023-01-22T13:44:52.425Z,2.31
2023-01-22T13:50:01.149Z,2.31
2023-01-22T13:55:23.467Z,2.34
2023-01-22T14:00:30.358Z,2.34
2023-01-22T14:05:34.535Z,2.34
2023-01-22T14:10:41.285Z,2.29
2023-01-22T14:15:55.292Z,2.25
2023-01-22T14:20:57.070Z,2.21
2023-01-22T14:26:02.211Z,2.18
2023-01-22T14:31:07.660Z,2.10
2023-01-22T14:36:09.642Z,2.12
2023-01-22T14:41:11.436Z,2.09
2023-01-22T14:46:18.410Z,2.09
2023-01-22T14:51:25.559Z,2.11
2023-01-22T14:56:32.570Z,2.09
2023-01-22T15:01:34.298Z,2.04
2023-01-22T15:06:36.056Z,2.14
2023-01-22T15:11:37.751Z,2.39
2023-01-22T15:16:40.738Z,2.25
2023-01-22T15:21:44.977Z,2.17
2023-01-22T15:26:46.825Z,2.04
2023-01-22T15:31:51.500Z,1.98
2023-01-22T15:36:54.376Z,1.97
2023-01-22T15:42:00.493Z,1.97
2023-01-22T15:47:08.631Z,1.94
2023-01-22T15:52:10.435Z,1.93
2023-01-22T15:57:13.606Z,1.93
2023-01-22T16:02:18.404Z,1.95
2023-01-22T16:07:23.264Z,1.94
2023-01-22T16:12:24.980Z,1.97
2023-01-22T16:17:29.311Z,1.98
2023-01-22T16:22:35.855Z,1.99
2023-01-22T16:27:41.191Z,2.03
2023-01-22T16:32:47.740Z,2.03
2023-01-22T16:37:51.898Z,2.04
2023-01-22T16:43:00.538Z,2.03
2023-01-22T16:48:08.361Z,2.04
2023-01-22T16:53:13.707Z,2.05
2023-01-22T16:58:15.578Z,2.06
2023-01-22T17:03:19.950Z,2.04
2023-01-22T17:08:21.754Z,2.04
2023-01-22T17:13:26.562Z,2.04
2023-01-22T17:18:32.897Z,2.06
2023-01-22T17:23:40.581Z,2.06
2023-01-22T17:28:42.823Z,2.06
2023-01-22T17:33:55.644Z,2.09
2023-01-22T17:39:01.640Z,2.09
2023-01-22T17:44:03.533Z,2.10
2023-01-22T17:49:07.969Z,2.10
2023-01-22T17:54:12.079Z,2.12
2023-01-22T17:59:14.038Z,2.14
2023-01-22T18:04:16.049Z,2.15
2023-01-22T18:09:21.950Z,2.16
2023-01-22T18:14:26.223Z,2.18
2023-01-22T18:19:28.271Z,2.19
2023-01-22T18:24:34.216Z,2.18
2023-01-22T18:29:38.961Z,2.20
2023-01-22T18:34:42.955Z,2.19
2023-01-22T18:39:48.159Z,2.18
2023-01-22T18:44:50.939Z,2.18
2023-01-22T18:49:57.126Z,2.18
2023-01-22T18:55:03.626Z,2.17
2023-01-22T19:00:09.500Z,2.17
2023-01-22T19:05:11.619Z,2.17
2023-01-22T19:10:18.308Z,2.17
2023-01-22T19:15:20.429Z,2.18
2023-01-22T19:20:24.551Z,2.18
2023-01-22T19:25:26.372Z,2.18
2023-01-22T19:30:31.128Z,2.18
2023-01-22T19:35:37.737Z,2.18
2023-01-22T19:40:48.756Z,2.17
2023-01-22T19:45:53.074Z,2.16
2023-01-22T19:51:03.077Z,2.14
2023-01-22T19:56:21.029Z,2.16
2023-01-22T20:01:27.548Z,2.15
2023-01-22T20:06:33.669Z,2.13
2023-01-22T20:11:38.847Z,2.08
2023-01-22T20:16:45.501Z,2.08
2023-01-22T20:21:47.297Z,1.94
2023-01-22T20:26:49.131Z,1.75
2023-01-22T20:31:56.927Z,1.47
2023-01-22T20:36:58.739Z,1.27
2023-01-22T20:42:00.387Z,1.40
2023-01-22T20:47:03.664Z,1.50
2023-01-22T20:52:08.597Z,1.62
2023-01-22T20:57:10.288Z,1.73
2023-01-22T21:02:12.068Z,1.80
2023-01-22T21:07:15.913Z,1.83
2023-01-22T21:12:17.690Z,1.86
2023-01-22T21:17:23.279Z,1.84
2023-01-22T21:22:25.150Z,1.88
2023-01-22T21:27:29.410Z,1.90
2023-01-22T21:32:33.432Z,1.91
2023-01-22T21:37:35.282Z,1.96
2023-01-22T21:42:55.585Z,2.00
2023-01-22T21:47:59.636Z,1.98
2023-01-22T21:53:01.365Z,1.95
2023-01-22T21:58:04.351Z,1.95
2023-01-22T22:03:10.866Z,1.92
2023-01-22T22:08:12.560Z,1.88
2023-01-22T22:13:14.277Z,1.88
2023-01-22T22:18:18.240Z,1.88
2023-01-22T22:23:22.026Z,1.89
2023-01-22T22:28:28.353Z,1.95
2023-01-22T22:33:32.381Z,1.97
2023-01-22T22:38:37.028Z,2.00
2023-01-22T22:43:41.169Z,2.04
2023-01-22T22:48:48.689Z,2.08
2023-01-22T22:54:00.819Z,2.11
2023-01-22T22:59:09.047Z,2.13
2023-01-22T23:04:13.594Z,2.16
2023-01-22T23:09:19.621Z,2.16
2023-01-22T23:14:28.468Z,2.13
2023-01-22T23:19:32.644Z,2.15
2023-01-22T23:24:34.420Z,2.14
2023-01-22T23:29:38.477Z,2.13
2023-01-22T23:34:42.627Z,2.13
2023-01-22T23:39:51.143Z,2.14
2023-01-22T23:44:55.263Z,2.16
2023-01-22T23:49:59.211Z,2.19
2023-01-22T23:55:03.527Z,2.18
